sensor_id;sensor_type;location;lat;lon;timestamp;P1;durP1;ratioP1;P2;durP2;ratioP2
19836;SDS011;10079;55.740;37.662;2023-05-10T00:02:20;10.77;;;4.67;;
19836;SDS011;10079;55.740;37.662;2023-05-10T00:05:27;9.57;;;4.80;;
19836;SDS011;10079;55.740;37.662;2023-05-10T00:08:33;8.10;;;4.90;;
19836;SDS011;10079;55.740;37.662;2023-05-10T00:11:48;8.53;;;4.80;;
19836;SDS011;10079;55.740;37.662;2023-05-10T00:14:54;10.10;;;5.10;;
19836;SDS011;10079;55.740;37.662;2023-05-10T00:18:01;9.57;;;5.00;;
19836;SDS011;10079;55.740;37.662;2023-05-10T00:21:04;11.40;;;4.90;;
19836;SDS011;10079;55.740;37.662;2023-05-10T00:24:07;9.23;;;5.20;;
19836;SDS011;10079;55.740;37.662;2023-05-10T00:27:18;9.00;;;5.17;;
19836;SDS011;10079;55.740;37.662;2023-05-10T00:41:04;8.77;;;4.77;;
19836;SDS011;10079;55.740;37.662;2023-05-10T00:44:07;12.33;;;4.80;;
19836;SDS011;10079;55.740;37.662;2023-05-10T00:47:13;8.53;;;4.83;;
19836;SDS011;10079;55.740;37.662;2023-05-10T00:50:16;7.83;;;4.77;;
19836;SDS011;10079;55.740;37.662;2023-05-10T00:53:20;9.20;;;5.27;;
19836;SDS011;10079;55.740;37.662;2023-05-10T00:56:22;11.10;;;4.53;;
19836;SDS011;10079;55.740;37.662;2023-05-10T00:59:25;7.00;;;4.30;;
19836;SDS011;10079;55.740;37.662;2023-05-10T01:02:28;9.33;;;5.03;;
19836;SDS011;10079;55.740;37.662;2023-05-10T01:05:31;8.33;;;4.87;;
19836;SDS011;10079;55.740;37.662;2023-05-10T01:08:47;9.43;;;4.63;;
19836;SDS011;10079;55.740;37.662;2023-05-10T01:11:50;7.60;;;4.53;;
19836;SDS011;10079;55.740;37.662;2023-05-10T01:14:52;10.63;;;4.83;;
19836;SDS011;10079;55.740;37.662;2023-05-10T01:17:55;8.20;;;4.63;;
19836;SDS011;10079;55.740;37.662;2023-05-10T01:24:19;8.10;;;4.73;;
19836;SDS011;10079;55.740;37.662;2023-05-10T01:27:41;9.53;;;4.47;;
19836;SDS011;10079;55.740;37.662;2023-05-10T01:30:50;10.20;;;5.20;;
19836;SDS011;10079;55.740;37.662;2023-05-10T01:34:07;9.03;;;4.60;;
19836;SDS011;10079;55.740;37.662;2023-05-10T01:37:13;7.73;;;4.33;;
19836;SDS011;10079;55.740;37.662;2023-05-10T01:40:19;7.37;;;3.90;;
19836;SDS011;10079;55.740;37.662;2023-05-10T01:43:28;7.07;;;4.10;;
19836;SDS011;10079;55.740;37.662;2023-05-10T01:46:33;7.90;;;4.00;;
19836;SDS011;10079;55.740;37.662;2023-05-10T01:49:37;8.23;;;4.77;;
19836;SDS011;10079;55.740;37.662;2023-05-10T01:52:50;6.80;;;3.70;;
19836;SDS011;10079;55.740;37.662;2023-05-10T01:56:03;7.13;;;3.53;;
19836;SDS011;10079;55.740;37.662;2023-05-10T02:20:10;6.47;;;3.67;;
19836;SDS011;10079;55.740;37.662;2023-05-10T02:23:22;5.50;;;3.23;;
19836;SDS011;10079;55.740;37.662;2023-05-10T02:26:35;4.97;;;3.00;;
19836;SDS011;10079;55.740;37.662;2023-05-10T02:40:18;7.03;;;4.13;;
19836;SDS011;10079;55.740;37.662;2023-05-10T02:43:27;8.87;;;4.10;;
19836;SDS011;10079;55.740;37.662;2023-05-10T02:46:31;4.73;;;3.50;;
19836;SDS011;10079;55.740;37.662;2023-05-10T02:49:47;7.83;;;3.57;;
19836;SDS011;10079;55.740;37.662;2023-05-10T02:53:00;6.33;;;3.50;;
19836;SDS011;10079;55.740;37.662;2023-05-10T02:56:05;5.53;;;3.40;;
19836;SDS011;10079;55.740;37.662;2023-05-10T02:59:08;5.00;;;3.00;;
19836;SDS011;10079;55.740;37.662;2023-05-10T03:02:12;5.70;;;3.37;;
19836;SDS011;10079;55.740;37.662;2023-05-10T03:15:58;5.53;;;3.33;;
19836;SDS011;10079;55.740;37.662;2023-05-10T03:19:06;5.00;;;3.07;;
19836;SDS011;10079;55.740;37.662;2023-05-10T03:22:20;7.63;;;3.70;;
19836;SDS011;10079;55.740;37.662;2023-05-10T03:25:21;6.33;;;3.60;;
19836;SDS011;10079;55.740;37.662;2023-05-10T03:28:37;8.57;;;3.70;;
19836;SDS011;10079;55.740;37.662;2023-05-10T03:31:40;10.50;;;3.80;;
19836;SDS011;10079;55.740;37.662;2023-05-10T03:34:51;6.17;;;3.77;;
19836;SDS011;10079;55.740;37.662;2023-05-10T03:37:54;6.77;;;3.90;;
19836;SDS011;10079;55.740;37.662;2023-05-10T03:40:57;6.33;;;3.53;;
19836;SDS011;10079;55.740;37.662;2023-05-10T03:43:59;8.50;;;4.30;;
19836;SDS011;10079;55.740;37.662;2023-05-10T03:47:05;5.93;;;3.70;;
19836;SDS011;10079;55.740;37.662;2023-05-10T03:50:09;7.20;;;3.97;;
19836;SDS011;10079;55.740;37.662;2023-05-10T03:53:12;10.33;;;4.00;;
19836;SDS011;10079;55.740;37.662;2023-05-10T03:56:15;7.03;;;3.73;;
19836;SDS011;10079;55.740;37.662;2023-05-10T03:59:21;7.17;;;4.10;;
19836;SDS011;10079;55.740;37.662;2023-05-10T04:02:36;6.10;;;4.07;;
19836;SDS011;10079;55.740;37.662;2023-05-10T04:05:46;7.60;;;4.20;;
19836;SDS011;10079;55.740;37.662;2023-05-10T04:08:53;8.53;;;3.70;;
19836;SDS011;10079;55.740;37.662;2023-05-10T04:11:59;7.47;;;4.17;;
19836;SDS011;10079;55.740;37.662;2023-05-10T04:15:03;9.50;;;4.63;;
19836;SDS011;10079;55.740;37.662;2023-05-10T04:18:07;7.60;;;4.40;;
19836;SDS011;10079;55.740;37.662;2023-05-10T04:21:11;10.50;;;4.30;;
19836;SDS011;10079;55.740;37.662;2023-05-10T04:24:22;7.90;;;3.97;;
19836;SDS011;10079;55.740;37.662;2023-05-10T04:27:28;5.80;;;3.40;;
19836;SDS011;10079;55.740;37.662;2023-05-10T04:30:44;6.13;;;3.00;;
19836;SDS011;10079;55.740;37.662;2023-05-10T04:33:54;7.03;;;3.30;;
19836;SDS011;10079;55.740;37.662;2023-05-10T04:37:01;5.80;;;3.63;;
19836;SDS011;10079;55.740;37.662;2023-05-10T04:40:07;5.43;;;3.10;;
19836;SDS011;10079;55.740;37.662;2023-05-10T04:43:15;5.10;;;3.20;;
19836;SDS011;10079;55.740;37.662;2023-05-10T04:46:21;5.03;;;3.33;;
19836;SDS011;10079;55.740;37.662;2023-05-10T04:49:27;7.67;;;3.50;;
19836;SDS011;10079;55.740;37.662;2023-05-10T04:52:31;7.87;;;3.40;;
19836;SDS011;10079;55.740;37.662;2023-05-10T04:55:45;6.53;;;3.27;;
19836;SDS011;10079;55.740;37.662;2023-05-10T04:58:56;5.53;;;2.87;;
19836;SDS011;10079;55.740;37.662;2023-05-10T05:02:00;4.60;;;2.90;;
19836;SDS011;10079;55.740;37.662;2023-05-10T05:05:15;4.40;;;3.30;;
19836;SDS011;10079;55.740;37.662;2023-05-10T05:08:28;6.13;;;3.13;;
19836;SDS011;10079;55.740;37.662;2023-05-10T05:11:44;5.03;;;3.50;;
19836;SDS011;10079;55.740;37.662;2023-05-10T05:14:47;7.17;;;2.70;;
19836;SDS011;10079;55.740;37.662;2023-05-10T05:28:23;9.67;;;3.10;;
19836;SDS011;10079;55.740;37.662;2023-05-10T05:31:30;6.13;;;2.53;;
19836;SDS011;10079;55.740;37.662;2023-05-10T05:34:33;8.13;;;2.83;;
19836;SDS011;10079;55.740;37.662;2023-05-10T05:37:36;7.40;;;2.60;;
19836;SDS011;10079;55.740;37.662;2023-05-10T05:40:39;5.07;;;2.80;;
19836;SDS011;10079;55.740;37.662;2023-05-10T05:43:42;4.47;;;3.17;;
19836;SDS011;10079;55.740;37.662;2023-05-10T05:46:45;7.50;;;3.37;;
19836;SDS011;10079;55.740;37.662;2023-05-10T05:49:48;7.20;;;2.60;;
19836;SDS011;10079;55.740;37.662;2023-05-10T05:52:51;4.57;;;2.70;;
19836;SDS011;10079;55.740;37.662;2023-05-10T05:56:07;9.07;;;3.13;;
19836;SDS011;10079;55.740;37.662;2023-05-10T06:09:43;4.13;;;2.70;;
19836;SDS011;10079;55.740;37.662;2023-05-10T06:12:48;5.87;;;2.77;;
19836;SDS011;10079;55.740;37.662;2023-05-10T06:15:51;5.00;;;3.03;;
19836;SDS011;10079;55.740;37.662;2023-05-10T06:18:53;6.13;;;2.73;;
19836;SDS011;10079;55.740;37.662;2023-05-10T06:32:32;3.00;;;2.53;;
19836;SDS011;10079;55.740;37.662;2023-05-10T06:35:35;4.97;;;2.87;;
19836;SDS011;10079;55.740;37.662;2023-05-10T06:38:38;4.53;;;2.90;;
19836;SDS011;10079;55.740;37.662;2023-05-10T06:41:41;5.10;;;2.80;;
19836;SDS011;10079;55.740;37.662;2023-05-10T06:44:45;5.30;;;2.60;;
19836;SDS011;10079;55.740;37.662;2023-05-10T06:47:47;5.73;;;2.40;;
19836;SDS011;10079;55.740;37.662;2023-05-10T06:50:50;3.87;;;2.30;;
19836;SDS011;10079;55.740;37.662;2023-05-10T06:53:53;7.23;;;2.43;;
19836;SDS011;10079;55.740;37.662;2023-05-10T06:56:56;4.13;;;2.27;;
19836;SDS011;10079;55.740;37.662;2023-05-10T07:00:04;3.60;;;2.80;;
19836;SDS011;10079;55.740;37.662;2023-05-10T07:03:10;6.07;;;2.33;;
19836;SDS011;10079;55.740;37.662;2023-05-10T07:06:17;6.17;;;2.60;;
19836;SDS011;10079;55.740;37.662;2023-05-10T07:09:23;6.77;;;2.60;;
19836;SDS011;10079;55.740;37.662;2023-05-10T07:12:38;4.57;;;3.07;;
19836;SDS011;10079;55.740;37.662;2023-05-10T07:15:44;4.03;;;2.20;;
19836;SDS011;10079;55.740;37.662;2023-05-10T07:19:00;5.23;;;2.30;;
19836;SDS011;10079;55.740;37.662;2023-05-10T07:22:15;5.27;;;2.20;;
19836;SDS011;10079;55.740;37.662;2023-05-10T07:25:17;3.20;;;2.20;;
19836;SDS011;10079;55.740;37.662;2023-05-10T07:28:23;3.87;;;2.20;;
19836;SDS011;10079;55.740;37.662;2023-05-10T07:52:36;3.22;;;2.22;;
19836;SDS011;10079;55.740;37.662;2023-05-10T07:55:43;3.55;;;2.28;;
19836;SDS011;10079;55.740;37.662;2023-05-10T07:58:49;4.95;;;2.40;;
19836;SDS011;10079;55.740;37.662;2023-05-10T08:01:54;4.03;;;2.25;;
19836;SDS011;10079;55.740;37.662;2023-05-10T08:04:57;4.05;;;2.25;;
19836;SDS011;10079;55.740;37.662;2023-05-10T08:08:03;3.00;;;2.12;;
19836;SDS011;10079;55.740;37.662;2023-05-10T08:11:10;3.60;;;2.42;;
19836;SDS011;10079;55.740;37.662;2023-05-10T08:14:16;3.40;;;2.10;;
19836;SDS011;10079;55.740;37.662;2023-05-10T08:17:22;4.78;;;2.95;;
19836;SDS011;10079;55.740;37.662;2023-05-10T08:20:29;4.53;;;2.62;;
19836;SDS011;10079;55.740;37.662;2023-05-10T08:23:32;5.03;;;2.30;;
19836;SDS011;10079;55.740;37.662;2023-05-10T08:26:35;2.90;;;2.22;;
19836;SDS011;10079;55.740;37.662;2023-05-10T08:29:41;3.33;;;2.17;;
19836;SDS011;10079;55.740;37.662;2023-05-10T08:32:56;3.40;;;2.00;;
19836;SDS011;10079;55.740;37.662;2023-05-10T08:36:02;2.37;;;2.05;;
19836;SDS011;10079;55.740;37.662;2023-05-10T08:39:12;3.72;;;2.30;;
19836;SDS011;10079;55.740;37.662;2023-05-10T08:42:40;2.92;;;2.33;;
19836;SDS011;10079;55.740;37.662;2023-05-10T08:45:43;4.78;;;2.50;;
19836;SDS011;10079;55.740;37.662;2023-05-10T08:48:46;3.80;;;2.35;;
19836;SDS011;10079;55.740;37.662;2023-05-10T08:51:52;6.35;;;2.60;;
19836;SDS011;10079;55.740;37.662;2023-05-10T08:55:03;4.60;;;2.22;;
19836;SDS011;10079;55.740;37.662;2023-05-10T08:58:06;4.18;;;2.55;;
19836;SDS011;10079;55.740;37.662;2023-05-10T09:01:09;4.12;;;2.40;;
19836;SDS011;10079;55.740;37.662;2023-05-10T09:04:15;3.55;;;2.30;;
19836;SDS011;10079;55.740;37.662;2023-05-10T09:07:31;3.10;;;2.20;;
19836;SDS011;10079;55.740;37.662;2023-05-10T09:10:37;4.43;;;3.17;;
19836;SDS011;10079;55.740;37.662;2023-05-10T09:24:13;3.28;;;1.95;;
19836;SDS011;10079;55.740;37.662;2023-05-10T09:27:17;2.15;;;1.90;;
19836;SDS011;10079;55.740;37.662;2023-05-10T09:30:26;2.80;;;2.28;;
19836;SDS011;10079;55.740;37.662;2023-05-10T09:33:29;3.27;;;2.30;;
19836;SDS011;10079;55.740;37.662;2023-05-10T09:36:50;4.85;;;2.60;;
19836;SDS011;10079;55.740;37.662;2023-05-10T09:39:57;3.62;;;2.47;;
19836;SDS011;10079;55.740;37.662;2023-05-10T09:43:04;4.28;;;2.33;;
19836;SDS011;10079;55.740;37.662;2023-05-10T09:46:19;4.05;;;2.72;;
19836;SDS011;10079;55.740;37.662;2023-05-10T09:49:21;5.32;;;2.83;;
19836;SDS011;10079;55.740;37.662;2023-05-10T09:52:28;5.05;;;2.70;;
19836;SDS011;10079;55.740;37.662;2023-05-10T10:06:18;3.80;;;2.70;;
19836;SDS011;10079;55.740;37.662;2023-05-10T10:19:53;3.12;;;2.20;;
19836;SDS011;10079;55.740;37.662;2023-05-10T10:22:56;4.53;;;1.97;;
19836;SDS011;10079;55.740;37.662;2023-05-10T10:36:30;3.78;;;2.50;;
19836;SDS011;10079;55.740;37.662;2023-05-10T10:39:36;2.67;;;1.87;;
19836;SDS011;10079;55.740;37.662;2023-05-10T10:42:51;4.57;;;2.10;;
19836;SDS011;10079;55.740;37.662;2023-05-10T10:46:10;2.70;;;1.90;;
19836;SDS011;10079;55.740;37.662;2023-05-10T10:49:14;4.57;;;2.40;;
19836;SDS011;10079;55.740;37.662;2023-05-10T10:52:27;4.97;;;2.20;;
19836;SDS011;10079;55.740;37.662;2023-05-10T10:55:30;2.60;;;2.30;;
19836;SDS011;10079;55.740;37.662;2023-05-10T10:58:48;4.67;;;2.60;;
19836;SDS011;10079;55.740;37.662;2023-05-10T11:01:51;4.73;;;2.63;;
19836;SDS011;10079;55.740;37.662;2023-05-10T11:04:55;2.70;;;2.20;;
19836;SDS011;10079;55.740;37.662;2023-05-10T11:08:25;2.93;;;2.00;;
19836;SDS011;10079;55.740;37.662;2023-05-10T11:11:26;3.57;;;1.80;;
19836;SDS011;10079;55.740;37.662;2023-05-10T11:14:33;4.40;;;1.80;;
19836;SDS011;10079;55.740;37.662;2023-05-10T11:17:47;2.83;;;1.60;;
19836;SDS011;10079;55.740;37.662;2023-05-10T11:20:51;4.27;;;2.10;;
19836;SDS011;10079;55.740;37.662;2023-05-10T11:23:55;2.83;;;1.90;;
19836;SDS011;10079;55.740;37.662;2023-05-10T11:26:57;2.70;;;1.90;;
19836;SDS011;10079;55.740;37.662;2023-05-10T11:30:01;5.67;;;2.00;;
19836;SDS011;10079;55.740;37.662;2023-05-10T11:33:16;2.10;;;1.80;;
19836;SDS011;10079;55.740;37.662;2023-05-10T11:36:20;2.23;;;1.73;;
19836;SDS011;10079;55.740;37.662;2023-05-10T11:39:22;1.83;;;1.73;;
19836;SDS011;10079;55.740;37.662;2023-05-10T11:42:24;2.47;;;1.67;;
19836;SDS011;10079;55.740;37.662;2023-05-10T11:45:28;5.40;;;1.80;;
19836;SDS011;10079;55.740;37.662;2023-05-10T11:48:31;4.57;;;2.10;;
19836;SDS011;10079;55.740;37.662;2023-05-10T11:51:35;3.23;;;2.10;;
19836;SDS011;10079;55.740;37.662;2023-05-10T11:57:51;2.47;;;1.90;;
19836;SDS011;10079;55.740;37.662;2023-05-10T12:00:51;2.43;;;2.10;;
19836;SDS011;10079;55.740;37.662;2023-05-10T12:03:59;3.80;;;1.90;;
19836;SDS011;10079;55.740;37.662;2023-05-10T12:07:03;3.27;;;1.77;;
19836;SDS011;10079;55.740;37.662;2023-05-10T12:10:06;3.37;;;1.97;;
19836;SDS011;10079;55.740;37.662;2023-05-10T12:13:17;6.73;;;2.50;;
19836;SDS011;10079;55.740;37.662;2023-05-10T12:16:21;5.70;;;2.20;;
19836;SDS011;10079;55.740;37.662;2023-05-10T12:19:37;4.60;;;2.30;;
19836;SDS011;10079;55.740;37.662;2023-05-10T12:22:52;4.27;;;1.90;;
19836;SDS011;10079;55.740;37.662;2023-05-10T12:26:02;2.50;;;1.80;;
19836;SDS011;10079;55.740;37.662;2023-05-10T12:29:12;3.50;;;1.90;;
19836;SDS011;10079;55.740;37.662;2023-05-10T12:32:18;2.53;;;2.00;;
19836;SDS011;10079;55.740;37.662;2023-05-10T12:46:06;2.70;;;1.70;;
19836;SDS011;10079;55.740;37.662;2023-05-10T12:49:21;2.80;;;2.30;;
19836;SDS011;10079;55.740;37.662;2023-05-10T12:52:36;6.33;;;2.23;;
19836;SDS011;10079;55.740;37.662;2023-05-10T12:55:51;4.87;;;1.90;;
19836;SDS011;10079;55.740;37.662;2023-05-10T12:58:54;5.77;;;1.90;;
19836;SDS011;10079;55.740;37.662;2023-05-10T13:02:08;2.73;;;2.20;;
19836;SDS011;10079;55.740;37.662;2023-05-10T13:05:12;4.20;;;2.30;;
19836;SDS011;10079;55.740;37.662;2023-05-10T13:08:15;4.20;;;2.10;;
19836;SDS011;10079;55.740;37.662;2023-05-10T13:11:27;2.33;;;1.93;;
19836;SDS011;10079;55.740;37.662;2023-05-10T13:14:30;3.03;;;2.30;;
19836;SDS011;10079;55.740;37.662;2023-05-10T13:17:33;3.40;;;2.10;;
19836;SDS011;10079;55.740;37.662;2023-05-10T13:20:37;4.10;;;2.30;;
19836;SDS011;10079;55.740;37.662;2023-05-10T13:23:39;4.33;;;2.20;;
19836;SDS011;10079;55.740;37.662;2023-05-10T13:26:42;4.33;;;1.73;;
19836;SDS011;10079;55.740;37.662;2023-05-10T13:29:48;2.67;;;1.87;;
19836;SDS011;10079;55.740;37.662;2023-05-10T13:43:23;4.67;;;2.30;;
19836;SDS011;10079;55.740;37.662;2023-05-10T13:46:38;4.60;;;2.10;;
19836;SDS011;10079;55.740;37.662;2023-05-10T13:49:51;2.63;;;1.80;;
19836;SDS011;10079;55.740;37.662;2023-05-10T13:52:54;2.90;;;1.90;;
19836;SDS011;10079;55.740;37.662;2023-05-10T13:55:57;5.37;;;2.10;;
19836;SDS011;10079;55.740;37.662;2023-05-10T13:58:59;6.20;;;2.43;;
19836;SDS011;10079;55.740;37.662;2023-05-10T14:02:05;4.70;;;2.40;;
19836;SDS011;10079;55.740;37.662;2023-05-10T14:16:00;4.00;;;2.33;;
19836;SDS011;10079;55.740;37.662;2023-05-10T14:19:03;3.27;;;1.90;;
19836;SDS011;10079;55.740;37.662;2023-05-10T14:32:36;4.30;;;2.07;;
19836;SDS011;10079;55.740;37.662;2023-05-10T14:35:39;5.73;;;2.20;;
19836;SDS011;10079;55.740;37.662;2023-05-10T14:38:42;4.27;;;2.07;;
19836;SDS011;10079;55.740;37.662;2023-05-10T14:41:45;3.17;;;2.13;;
19836;SDS011;10079;55.740;37.662;2023-05-10T14:44:48;2.87;;;1.80;;
19836;SDS011;10079;55.740;37.662;2023-05-10T14:47:52;4.70;;;2.37;;
19836;SDS011;10079;55.740;37.662;2023-05-10T14:50:57;3.07;;;1.90;;
19836;SDS011;10079;55.740;37.662;2023-05-10T14:54:04;3.57;;;2.10;;
19836;SDS011;10079;55.740;37.662;2023-05-10T14:57:10;4.10;;;2.00;;
19836;SDS011;10079;55.740;37.662;2023-05-10T15:00:14;3.00;;;1.93;;
19836;SDS011;10079;55.740;37.662;2023-05-10T15:03:17;4.47;;;2.67;;
19836;SDS011;10079;55.740;37.662;2023-05-10T15:06:24;6.40;;;2.27;;
19836;SDS011;10079;55.740;37.662;2023-05-10T15:09:39;5.57;;;1.97;;
19836;SDS011;10079;55.740;37.662;2023-05-10T15:12:41;2.67;;;2.07;;
19836;SDS011;10079;55.740;37.662;2023-05-10T15:15:48;4.40;;;2.20;;
19836;SDS011;10079;55.740;37.662;2023-05-10T15:18:51;4.97;;;2.20;;
19836;SDS011;10079;55.740;37.662;2023-05-10T15:21:54;5.73;;;2.60;;
19836;SDS011;10079;55.740;37.662;2023-05-10T15:24:58;6.50;;;3.03;;
19836;SDS011;10079;55.740;37.662;2023-05-10T15:28:00;3.00;;;2.60;;
19836;SDS011;10079;55.740;37.662;2023-05-10T15:31:11;4.40;;;2.53;;
19836;SDS011;10079;55.740;37.662;2023-05-10T15:34:14;6.13;;;2.40;;
19836;SDS011;10079;55.740;37.662;2023-05-10T15:37:25;8.00;;;5.37;;
19836;SDS011;10079;55.740;37.662;2023-05-10T15:40:29;3.97;;;2.60;;
19836;SDS011;10079;55.740;37.662;2023-05-10T16:15:08;4.73;;;2.20;;
19836;SDS011;10079;55.740;37.662;2023-05-10T16:18:11;5.97;;;2.57;;
19836;SDS011;10079;55.740;37.662;2023-05-10T16:21:14;4.90;;;2.40;;
19836;SDS011;10079;55.740;37.662;2023-05-10T16:24:17;4.07;;;2.60;;
19836;SDS011;10079;55.740;37.662;2023-05-10T16:27:32;4.43;;;2.40;;
19836;SDS011;10079;55.740;37.662;2023-05-10T16:41:05;5.80;;;2.90;;
19836;SDS011;10079;55.740;37.662;2023-05-10T16:44:08;11.90;;;5.30;;
19836;SDS011;10079;55.740;37.662;2023-05-10T16:47:15;5.37;;;3.13;;
19836;SDS011;10079;55.740;37.662;2023-05-10T16:50:22;3.70;;;2.57;;
19836;SDS011;10079;55.740;37.662;2023-05-10T16:53:26;4.20;;;2.33;;
19836;SDS011;10079;55.740;37.662;2023-05-10T16:56:41;6.93;;;2.90;;
19836;SDS011;10079;55.740;37.662;2023-05-10T16:59:58;5.27;;;2.47;;
19836;SDS011;10079;55.740;37.662;2023-05-10T17:03:01;4.40;;;2.40;;
19836;SDS011;10079;55.740;37.662;2023-05-10T17:06:07;4.90;;;2.50;;
19836;SDS011;10079;55.740;37.662;2023-05-10T17:09:10;3.73;;;2.53;;
19836;SDS011;10079;55.740;37.662;2023-05-10T17:12:13;8.77;;;3.20;;
19836;SDS011;10079;55.740;37.662;2023-05-10T17:15:28;7.33;;;2.60;;
19836;SDS011;10079;55.740;37.662;2023-05-10T17:18:31;8.20;;;2.70;;
19836;SDS011;10079;55.740;37.662;2023-05-10T17:21:34;8.03;;;3.00;;
19836;SDS011;10079;55.740;37.662;2023-05-10T17:24:37;4.93;;;2.50;;
19836;SDS011;10079;55.740;37.662;2023-05-10T17:27:41;7.20;;;3.27;;
19836;SDS011;10079;55.740;37.662;2023-05-10T17:30:44;8.03;;;2.80;;
19836;SDS011;10079;55.740;37.662;2023-05-10T17:33:54;5.67;;;3.20;;
19836;SDS011;10079;55.740;37.662;2023-05-10T17:37:06;4.87;;;2.20;;
19836;SDS011;10079;55.740;37.662;2023-05-10T17:43:34;6.87;;;2.80;;
19836;SDS011;10079;55.740;37.662;2023-05-10T17:46:38;4.13;;;2.77;;
19836;SDS011;10079;55.740;37.662;2023-05-10T17:49:57;5.10;;;3.03;;
19836;SDS011;10079;55.740;37.662;2023-05-10T17:53:02;8.03;;;3.13;;
19836;SDS011;10079;55.740;37.662;2023-05-10T17:56:09;7.00;;;2.93;;
19836;SDS011;10079;55.740;37.662;2023-05-10T17:59:15;6.33;;;2.80;;
19836;SDS011;10079;55.740;37.662;2023-05-10T18:02:19;4.40;;;2.67;;
19836;SDS011;10079;55.740;37.662;2023-05-10T18:05:22;3.07;;;2.60;;
19836;SDS011;10079;55.740;37.662;2023-05-10T18:08:25;4.80;;;2.80;;
19836;SDS011;10079;55.740;37.662;2023-05-10T18:11:31;4.17;;;2.73;;
19836;SDS011;10079;55.740;37.662;2023-05-10T18:14:37;4.30;;;2.40;;
19836;SDS011;10079;55.740;37.662;2023-05-10T18:17:43;4.97;;;2.50;;
19836;SDS011;10079;55.740;37.662;2023-05-10T18:20:50;5.23;;;3.07;;
19836;SDS011;10079;55.740;37.662;2023-05-10T18:24:05;6.73;;;3.17;;
19836;SDS011;10079;55.740;37.662;2023-05-10T18:27:09;5.77;;;3.30;;
19836;SDS011;10079;55.740;37.662;2023-05-10T18:30:11;7.63;;;2.70;;
19836;SDS011;10079;55.740;37.662;2023-05-10T18:33:15;5.07;;;3.30;;
19836;SDS011;10079;55.740;37.662;2023-05-10T18:36:19;8.63;;;2.87;;
19836;SDS011;10079;55.740;37.662;2023-05-10T18:39:22;8.30;;;2.87;;
19836;SDS011;10079;55.740;37.662;2023-05-10T18:42:28;4.57;;;2.70;;
19836;SDS011;10079;55.740;37.662;2023-05-10T18:45:43;7.63;;;2.77;;
19836;SDS011;10079;55.740;37.662;2023-05-10T18:48:49;4.03;;;2.90;;
19836;SDS011;10079;55.740;37.662;2023-05-10T18:51:56;8.00;;;2.70;;
19836;SDS011;10079;55.740;37.662;2023-05-10T18:54:59;5.70;;;2.70;;
19836;SDS011;10079;55.740;37.662;2023-05-10T18:58:06;4.97;;;3.00;;
19836;SDS011;10079;55.740;37.662;2023-05-10T19:01:09;8.97;;;3.23;;
19836;SDS011;10079;55.740;37.662;2023-05-10T19:04:13;3.97;;;3.00;;
19836;SDS011;10079;55.740;37.662;2023-05-10T19:07:15;12.27;;;4.50;;
19836;SDS011;10079;55.740;37.662;2023-05-10T19:10:31;13.47;;;3.73;;
19836;SDS011;10079;55.740;37.662;2023-05-10T19:13:37;10.67;;;3.80;;
19836;SDS011;10079;55.740;37.662;2023-05-10T19:16:43;29.27;;;21.87;;
19836;SDS011;10079;55.740;37.662;2023-05-10T19:19:50;8.40;;;4.37;;
19836;SDS011;10079;55.740;37.662;2023-05-10T19:22:53;7.17;;;3.43;;
19836;SDS011;10079;55.740;37.662;2023-05-10T19:25:56;6.07;;;3.40;;
19836;SDS011;10079;55.740;37.662;2023-05-10T19:28:59;7.27;;;4.27;;
19836;SDS011;10079;55.740;37.662;2023-05-10T19:32:03;7.67;;;3.43;;
19836;SDS011;10079;55.740;37.662;2023-05-10T19:35:06;6.20;;;2.90;;
19836;SDS011;10079;55.740;37.662;2023-05-10T19:38:08;4.60;;;3.10;;
19836;SDS011;10079;55.740;37.662;2023-05-10T19:41:13;10.50;;;4.13;;
19836;SDS011;10079;55.740;37.662;2023-05-10T19:44:16;10.20;;;3.20;;
19836;SDS011;10079;55.740;37.662;2023-05-10T19:47:19;6.30;;;3.23;;
19836;SDS011;10079;55.740;37.662;2023-05-10T19:50:22;3.37;;;2.60;;
19836;SDS011;10079;55.740;37.662;2023-05-10T19:53:25;4.13;;;2.73;;
19836;SDS011;10079;55.740;37.662;2023-05-10T19:56:28;5.03;;;2.80;;
19836;SDS011;10079;55.740;37.662;2023-05-10T19:59:31;4.07;;;2.93;;
19836;SDS011;10079;55.740;37.662;2023-05-10T20:02:34;6.40;;;3.20;;
19836;SDS011;10079;55.740;37.662;2023-05-10T20:05:37;5.27;;;3.00;;
19836;SDS011;10079;55.740;37.662;2023-05-10T20:08:39;8.63;;;3.60;;
19836;SDS011;10079;55.740;37.662;2023-05-10T20:11:42;8.00;;;3.90;;
19836;SDS011;10079;55.740;37.662;2023-05-10T20:14:48;10.60;;;4.80;;
19836;SDS011;10079;55.740;37.662;2023-05-10T20:17:54;13.20;;;5.40;;
19836;SDS011;10079;55.740;37.662;2023-05-10T20:20:58;10.93;;;5.10;;
19836;SDS011;10079;55.740;37.662;2023-05-10T20:24:01;12.77;;;5.63;;
19836;SDS011;10079;55.740;37.662;2023-05-10T20:27:07;13.73;;;6.57;;
19836;SDS011;10079;55.740;37.662;2023-05-10T20:30:21;17.50;;;6.97;;
19836;SDS011;10079;55.740;37.662;2023-05-10T20:33:37;13.77;;;5.27;;
19836;SDS011;10079;55.740;37.662;2023-05-10T20:36:40;16.60;;;5.83;;
19836;SDS011;10079;55.740;37.662;2023-05-10T20:39:43;26.23;;;7.47;;
19836;SDS011;10079;55.740;37.662;2023-05-10T20:42:57;17.13;;;6.63;;
19836;SDS011;10079;55.740;37.662;2023-05-10T20:46:00;14.70;;;6.00;;
19836;SDS011;10079;55.740;37.662;2023-05-10T20:49:03;15.33;;;5.90;;
19836;SDS011;10079;55.740;37.662;2023-05-10T20:52:21;12.53;;;5.30;;
19836;SDS011;10079;55.740;37.662;2023-05-10T20:55:35;11.63;;;5.27;;
19836;SDS011;10079;55.740;37.662;2023-05-10T20:58:50;16.97;;;6.67;;
19836;SDS011;10079;55.740;37.662;2023-05-10T21:01:53;21.07;;;6.40;;
19836;SDS011;10079;55.740;37.662;2023-05-10T21:04:56;20.17;;;7.80;;
19836;SDS011;10079;55.740;37.662;2023-05-10T21:18:36;23.43;;;8.00;;
19836;SDS011;10079;55.740;37.662;2023-05-10T21:21:40;19.10;;;7.17;;
19836;SDS011;10079;55.740;37.662;2023-05-10T21:24:51;19.37;;;7.53;;
19836;SDS011;10079;55.740;37.662;2023-05-10T21:27:58;23.37;;;7.13;;
19836;SDS011;10079;55.740;37.662;2023-05-10T21:31:04;18.73;;;6.90;;
19836;SDS011;10079;55.740;37.662;2023-05-10T21:34:07;17.20;;;7.60;;
19836;SDS011;10079;55.740;37.662;2023-05-10T21:37:22;20.03;;;8.13;;
19836;SDS011;10079;55.740;37.662;2023-05-10T21:40:25;21.90;;;7.77;;
19836;SDS011;10079;55.740;37.662;2023-05-10T21:43:28;25.90;;;8.47;;
19836;SDS011;10079;55.740;37.662;2023-05-10T21:46:31;29.80;;;9.13;;
19836;SDS011;10079;55.740;37.662;2023-05-10T21:49:47;28.87;;;12.13;;
19836;SDS011;10079;55.740;37.662;2023-05-10T21:52:50;23.00;;;11.10;;
19836;SDS011;10079;55.740;37.662;2023-05-10T21:55:53;25.10;;;11.07;;
19836;SDS011;10079;55.740;37.662;2023-05-10T21:58:58;23.20;;;10.73;;
19836;SDS011;10079;55.740;37.662;2023-05-10T22:02:02;28.87;;;12.43;;
19836;SDS011;10079;55.740;37.662;2023-05-10T22:05:05;32.87;;;11.73;;
19836;SDS011;10079;55.740;37.662;2023-05-10T22:08:07;28.30;;;11.63;;
19836;SDS011;10079;55.740;37.662;2023-05-10T22:11:10;27.37;;;10.27;;
19836;SDS011;10079;55.740;37.662;2023-05-10T22:14:13;22.70;;;10.50;;
19836;SDS011;10079;55.740;37.662;2023-05-10T22:17:16;22.53;;;10.27;;
19836;SDS011;10079;55.740;37.662;2023-05-10T22:20:19;25.97;;;10.57;;
19836;SDS011;10079;55.740;37.662;2023-05-10T22:23:25;29.43;;;11.07;;
19836;SDS011;10079;55.740;37.662;2023-05-10T22:26:41;19.60;;;9.67;;
19836;SDS011;10079;55.740;37.662;2023-05-10T22:29:56;25.00;;;10.03;;
19836;SDS011;10079;55.740;37.662;2023-05-10T22:32:58;22.70;;;8.93;;
19836;SDS011;10079;55.740;37.662;2023-05-10T22:36:01;20.00;;;8.70;;